createdAt,value
2022-12-27T00:01:14.469Z,13.25
2022-12-27T00:03:41.229Z,13.13
2022-12-27T00:06:19.049Z,13.11
2022-12-27T00:08:45.783Z,13.12
2022-12-27T00:11:15.584Z,13.05
2022-12-27T00:13:42.323Z,13.00
2022-12-27T00:16:10.414Z,13.03
2022-12-27T00:18:37.799Z,13.01
2022-12-27T00:21:04.594Z,12.98
2022-12-27T00:23:35.938Z,12.91
2022-12-27T00:26:04.176Z,12.91
2022-12-27T00:28:34.200Z,12.87
2022-12-27T00:31:00.929Z,12.93
2022-12-27T00:33:28.392Z,13.01
2022-12-27T00:35:55.309Z,13.08
2022-12-27T00:38:21.981Z,13.15
2022-12-27T00:40:48.581Z,13.19
2022-12-27T00:43:15.242Z,13.09
2022-12-27T00:45:42.294Z,13.11
2022-12-27T00:48:09.066Z,13.07
2022-12-27T00:50:35.746Z,13.05
2022-12-27T00:53:02.394Z,13.04
2022-12-27T00:55:29.020Z,13.18
2022-12-27T00:57:55.674Z,13.22
2022-12-27T01:00:22.369Z,13.29
2022-12-27T01:02:49.014Z,13.29
2022-12-27T01:05:16.023Z,13.26
2022-12-27T01:07:42.669Z,13.28
2022-12-27T01:10:09.441Z,13.29
2022-12-27T01:12:36.466Z,13.30
2022-12-27T01:15:04.668Z,13.31
2022-12-27T01:17:31.305Z,13.20
2022-12-27T01:19:57.880Z,13.21
2022-12-27T01:22:24.531Z,13.28
2022-12-27T01:24:51.323Z,13.29
2022-12-27T01:27:17.968Z,13.35
2022-12-27T01:29:44.596Z,13.33
2022-12-27T01:32:11.222Z,13.36
2022-12-27T01:34:37.835Z,13.29
2022-12-27T01:37:04.422Z,13.22
2022-12-27T01:39:31.086Z,13.22
2022-12-27T01:41:57.827Z,13.31
2022-12-27T01:44:39.734Z,13.36
2022-12-27T01:47:24.448Z,13.39
2022-12-27T01:50:06.332Z,13.44
2022-12-27T01:52:38.513Z,13.33
2022-12-27T01:55:25.606Z,13.42
2022-12-27T01:57:53.284Z,13.41
2022-12-27T02:00:20.029Z,13.27
2022-12-27T02:02:46.750Z,13.39
2022-12-27T02:05:14.697Z,13.37
2022-12-27T02:07:46.090Z,13.29
2022-12-27T02:10:12.731Z,13.40
2022-12-27T02:12:39.410Z,13.35
2022-12-27T02:15:06.218Z,13.42
2022-12-27T02:17:32.864Z,13.23
2022-12-27T02:20:17.687Z,13.31
2022-12-27T02:22:44.238Z,13.37
2022-12-27T02:25:32.019Z,13.42
2022-12-27T02:28:19.706Z,13.35
2022-12-27T02:30:47.280Z,13.41
2022-12-27T02:33:21.995Z,13.38
2022-12-27T02:35:52.678Z,13.38
2022-12-27T02:38:25.118Z,13.34
2022-12-27T02:40:51.758Z,13.35
2022-12-27T02:43:18.353Z,13.27
2022-12-27T02:46:10.361Z,13.18
2022-12-27T02:48:37.024Z,13.23
2022-12-27T02:51:23.590Z,13.20
2022-12-27T02:54:11.818Z,13.24
2022-12-27T02:56:46.936Z,13.20
2022-12-27T02:59:33.566Z,13.13
2022-12-27T03:02:49.114Z,13.05
2022-12-27T03:05:28.587Z,12.85
2022-12-27T03:08:08.770Z,13.03
2022-12-27T03:10:45.205Z,12.74
2022-12-27T03:13:18.263Z,12.69
2022-12-27T03:16:03.406Z,12.72
2022-12-27T03:18:38.655Z,12.70
2022-12-27T03:21:05.769Z,12.69
2022-12-27T03:23:32.404Z,12.49
2022-12-27T03:25:59.045Z,12.53
2022-12-27T03:28:27.453Z,12.53
2022-12-27T03:30:57.713Z,12.42
2022-12-27T03:33:25.872Z,12.37
2022-12-27T03:36:20.390Z,12.49
2022-12-27T03:39:11.914Z,12.50
2022-12-27T03:41:40.744Z,12.34
2022-12-27T03:44:07.389Z,12.36
2022-12-27T03:46:34.243Z,12.37
2022-12-27T03:49:18.317Z,12.28
2022-12-27T03:51:46.847Z,12.30
2022-12-27T03:54:20.943Z,12.39
2022-12-27T03:56:47.583Z,12.39
2022-12-27T03:59:14.223Z,12.38
2022-12-27T04:01:40.919Z,12.35
2022-12-27T04:04:07.592Z,12.51
2022-12-27T04:06:34.206Z,12.43
2022-12-27T04:09:00.790Z,12.55
2022-12-27T04:11:27.446Z,12.57
2022-12-27T04:13:54.051Z,12.69
2022-12-27T04:16:20.752Z,12.66
2022-12-27T04:18:47.383Z,12.65
2022-12-27T04:21:14.013Z,12.58
2022-12-27T04:23:40.607Z,12.68
2022-12-27T04:26:07.243Z,12.59
2022-12-27T04:28:33.903Z,12.62
2022-12-27T04:31:00.514Z,12.65
2022-12-27T04:33:27.163Z,12.68
2022-12-27T04:35:53.793Z,12.69
2022-12-27T04:38:20.396Z,12.63
2022-12-27T04:40:47.011Z,12.56
2022-12-27T04:43:13.650Z,12.54
2022-12-27T04:45:40.257Z,12.42
2022-12-27T04:48:11.290Z,12.48
2022-12-27T04:50:37.880Z,12.42
2022-12-27T04:53:09.800Z,12.27
2022-12-27T04:55:36.581Z,12.28
2022-12-27T04:58:03.232Z,12.27
2022-12-27T05:00:30.320Z,12.28
2022-12-27T05:02:57.054Z,12.29
2022-12-27T05:05:23.679Z,12.16
2022-12-27T05:07:50.313Z,12.20
2022-12-27T05:10:16.899Z,12.16
2022-12-27T05:12:43.518Z,12.10
2022-12-27T05:15:10.147Z,12.14
2022-12-27T05:17:36.791Z,12.12
2022-12-27T05:20:04.654Z,12.02
2022-12-27T05:22:31.287Z,11.98
2022-12-27T05:24:57.922Z,11.91
2022-12-27T05:27:24.519Z,11.82
2022-12-27T05:29:51.153Z,11.76
2022-12-27T05:32:17.799Z,11.69
2022-12-27T05:34:44.432Z,11.66
2022-12-27T05:37:11.085Z,11.67
2022-12-27T05:42:04.422Z,11.66
2022-12-27T05:44:31.059Z,11.62
2022-12-27T05:46:57.725Z,11.57
2022-12-27T05:49:24.374Z,11.42
2022-12-27T05:51:50.978Z,11.48
2022-12-27T05:54:17.623Z,11.47
2022-12-27T05:56:44.295Z,11.43
2022-12-27T05:59:10.949Z,11.46
2022-12-27T06:01:37.613Z,11.46
2022-12-27T06:04:04.310Z,11.38
2022-12-27T06:06:30.968Z,11.32
2022-12-27T06:08:57.563Z,11.35
2022-12-27T06:11:24.138Z,11.31
2022-12-27T06:13:53.555Z,11.26
2022-12-27T06:16:20.704Z,11.23
2022-12-27T06:18:47.415Z,11.27
2022-12-27T06:21:15.911Z,11.29
2022-12-27T06:23:42.841Z,11.28
2022-12-27T06:26:12.541Z,11.29
2022-12-27T06:28:39.225Z,11.25
2022-12-27T06:31:05.974Z,11.25
2022-12-27T06:33:32.641Z,11.23
2022-12-27T06:35:59.339Z,11.23
2022-12-27T06:38:25.952Z,11.18
2022-12-27T06:40:52.553Z,11.16
2022-12-27T06:43:19.136Z,11.11
2022-12-27T06:45:45.815Z,11.14
2022-12-27T06:48:12.468Z,11.01
2022-12-27T06:50:39.324Z,10.96
2022-12-27T06:53:05.917Z,10.95
2022-12-27T06:55:32.504Z,10.91
2022-12-27T06:57:59.093Z,10.95
2022-12-27T07:00:25.716Z,10.97
2022-12-27T07:02:52.550Z,10.99
2022-12-27T07:05:19.301Z,10.99
2022-12-27T07:07:46.010Z,11.07
2022-12-27T07:10:12.654Z,11.04
2022-12-27T07:12:39.293Z,11.02
2022-12-27T07:15:06.534Z,11.06
2022-12-27T07:17:34.944Z,11.13
2022-12-27T07:20:02.638Z,11.16
2022-12-27T07:22:29.311Z,11.15
2022-12-27T07:24:55.958Z,11.20
2022-12-27T07:27:22.581Z,11.27
2022-12-27T07:29:49.246Z,11.23
2022-12-27T07:32:15.881Z,11.29
2022-12-27T07:34:42.638Z,11.40
2022-12-27T07:37:09.279Z,11.36
2022-12-27T07:39:35.897Z,11.41
2022-12-27T07:42:07.949Z,11.45
2022-12-27T07:44:35.075Z,11.52
2022-12-27T07:47:01.704Z,11.53
2022-12-27T07:49:28.307Z,11.65
2022-12-27T07:51:54.936Z,11.79
2022-12-27T07:54:21.587Z,11.85
2022-12-27T07:56:48.230Z,11.90
2022-12-27T07:59:14.959Z,11.89
2022-12-27T08:01:42.782Z,11.89
2022-12-27T08:04:09.468Z,11.86
2022-12-27T08:06:36.065Z,11.83
2022-12-27T08:09:04.528Z,11.84
2022-12-27T08:11:31.231Z,11.80
2022-12-27T08:13:57.883Z,11.80
2022-12-27T08:16:25.174Z,11.76
2022-12-27T08:18:51.900Z,11.78
2022-12-27T08:21:18.482Z,11.75
2022-12-27T08:23:45.138Z,11.76
2022-12-27T08:26:11.748Z,11.70
2022-12-27T08:28:38.371Z,11.65
2022-12-27T08:31:09.480Z,11.67
2022-12-27T08:33:36.337Z,11.69
2022-12-27T08:36:22.374Z,11.73
2022-12-27T08:38:54.183Z,11.76
2022-12-27T08:41:21.613Z,11.82
2022-12-27T08:43:48.238Z,11.92
2022-12-27T08:46:14.936Z,11.99
2022-12-27T08:48:41.608Z,12.05
2022-12-27T08:51:12.559Z,12.08
2022-12-27T08:53:41.278Z,12.06
2022-12-27T08:56:07.915Z,11.99
2022-12-27T08:58:34.590Z,12.09
2022-12-27T09:01:07.551Z,12.15
2022-12-27T09:03:34.211Z,12.26
2022-12-27T09:06:11.485Z,12.32
2022-12-27T09:08:38.226Z,12.35
2022-12-27T09:11:12.880Z,12.44
2022-12-27T09:13:39.789Z,12.57
2022-12-27T09:16:11.223Z,12.60
2022-12-27T09:18:38.757Z,12.68
2022-12-27T09:21:13.094Z,12.70
2022-12-27T09:23:40.466Z,12.80
2022-12-27T09:26:07.864Z,12.84
2022-12-27T09:28:34.878Z,12.84
2022-12-27T09:31:01.574Z,12.70
2022-12-27T09:33:28.430Z,12.65
2022-12-27T09:36:01.621Z,12.72
2022-12-27T09:38:28.249Z,12.74
2022-12-27T09:40:55.623Z,12.42
2022-12-27T09:43:27.686Z,12.44
2022-12-27T09:45:55.184Z,12.51
2022-12-27T09:48:33.308Z,12.50
2022-12-27T09:51:21.466Z,12.57
2022-12-27T09:54:10.085Z,12.67
2022-12-27T09:57:09.610Z,12.66
2022-12-27T09:59:25.923Z,12.80
2022-12-27T10:01:52.659Z,12.83
2022-12-27T10:04:19.349Z,12.90
2022-12-27T10:06:48.604Z,12.65
2022-12-27T10:09:36.546Z,12.71
2022-12-27T10:12:35.208Z,12.69
2022-12-27T10:15:01.750Z,12.77
2022-12-27T10:17:53.111Z,12.78
2022-12-27T10:20:23.257Z,12.68
2022-12-27T10:23:04.326Z,12.78
2022-12-27T10:25:33.169Z,12.86
2022-12-27T10:28:02.500Z,12.83
2022-12-27T10:30:30.676Z,12.77
2022-12-27T10:32:57.348Z,12.77
2022-12-27T10:35:23.949Z,12.68
2022-12-27T10:37:50.586Z,12.76
2022-12-27T10:40:20.186Z,12.79
2022-12-27T10:43:19.747Z,12.77
2022-12-27T10:45:46.379Z,12.86
2022-12-27T10:48:20.622Z,12.93
2022-12-27T10:51:07.781Z,13.02
2022-12-27T10:53:39.467Z,13.21
2022-12-27T10:56:17.203Z,13.32
2022-12-27T10:58:45.705Z,13.42
2022-12-27T11:01:17.465Z,13.52
2022-12-27T11:03:44.171Z,13.57
2022-12-27T11:06:22.372Z,13.57
2022-12-27T11:08:49.067Z,13.74
2022-12-27T11:11:24.601Z,13.88
2022-12-27T11:13:51.494Z,13.75
2022-12-27T11:16:23.490Z,13.90
2022-12-27T11:18:51.695Z,14.09
2022-12-27T11:21:27.280Z,14.09
2022-12-27T11:23:59.780Z,14.17
2022-12-27T11:26:40.031Z,14.26
2022-12-27T11:29:06.664Z,14.37
2022-12-27T11:31:37.620Z,14.64
2022-12-27T11:34:16.408Z,14.68
2022-12-27T11:36:44.422Z,14.80
2022-12-27T11:39:41.993Z,14.95
2022-12-27T11:42:21.071Z,15.08
2022-12-27T11:45:10.483Z,15.22
2022-12-27T11:47:55.167Z,15.24
2022-12-27T11:50:48.082Z,15.22
2022-12-27T11:53:56.224Z,15.25
2022-12-27T11:56:26.724Z,15.15
2022-12-27T11:59:30.427Z,15.15
2022-12-27T12:02:25.087Z,15.09
2022-12-27T12:05:03.705Z,14.96
2022-12-27T12:08:04.111Z,14.97
2022-12-27T12:10:39.464Z,14.95
2022-12-27T12:13:19.475Z,14.97
2022-12-27T12:16:46.911Z,15.04
2022-12-27T12:19:38.206Z,15.04
2022-12-27T12:22:23.218Z,15.01
2022-12-27T12:24:52.787Z,14.95
2022-12-27T12:27:26.906Z,14.94
2022-12-27T12:30:31.892Z,15.01
2022-12-27T12:33:23.184Z,14.90
2022-12-27T12:36:11.332Z,14.75
2022-12-27T12:39:01.935Z,14.72
2022-12-27T12:41:31.489Z,14.70
2022-12-27T12:44:41.354Z,14.69
2022-12-27T12:47:29.281Z,14.77
2022-12-27T12:50:16.837Z,14.70
2022-12-27T12:53:04.991Z,14.54
2022-12-27T12:56:01.752Z,14.57
2022-12-27T12:58:41.227Z,14.51
2022-12-27T13:01:31.193Z,14.64
2022-12-27T13:04:03.533Z,14.67
2022-12-27T13:06:51.061Z,14.72
2022-12-27T13:09:28.466Z,14.75
2022-12-27T13:12:22.624Z,14.88
2022-12-27T13:15:13.897Z,14.88
2022-12-27T13:18:10.994Z,14.80
2022-12-27T13:21:15.087Z,14.92
2022-12-27T13:24:06.167Z,14.93
2022-12-27T13:26:49.655Z,14.91
2022-12-27T13:29:42.476Z,14.84
2022-12-27T13:32:31.478Z,14.78
2022-12-27T13:35:26.946Z,14.83
2022-12-27T13:38:27.099Z,14.76
2022-12-27T13:41:30.210Z,14.70
2022-12-27T13:44:00.456Z,14.68
2022-12-27T13:46:42.020Z,14.65
2022-12-27T13:49:24.438Z,14.64
2022-12-27T13:51:51.552Z,14.62
2022-12-27T13:54:24.156Z,14.62
2022-12-27T13:57:11.054Z,14.61
2022-12-27T13:59:49.786Z,14.58
2022-12-27T14:02:37.713Z,14.56
2022-12-27T14:05:38.524Z,14.49
2022-12-27T14:08:36.977Z,14.52
2022-12-27T14:11:03.872Z,14.47
2022-12-27T14:13:35.549Z,14.48
2022-12-27T14:16:20.210Z,14.41
2022-12-27T14:19:00.302Z,14.49
2022-12-27T14:21:41.686Z,14.49
2022-12-27T14:24:29.989Z,14.47
2022-12-27T14:27:05.434Z,14.45
2022-12-27T14:29:34.897Z,14.43
2022-12-27T14:32:16.525Z,14.37
2022-12-27T14:34:59.899Z,14.35
2022-12-27T14:37:50.745Z,14.33
2022-12-27T14:40:34.812Z,14.25
2022-12-27T14:43:21.664Z,14.19
2022-12-27T14:46:25.953Z,14.11
2022-12-27T14:49:07.733Z,14.10
2022-12-27T14:52:12.087Z,14.00
2022-12-27T14:54:57.935Z,13.97
2022-12-27T14:57:55.016Z,13.97
2022-12-27T15:00:25.276Z,13.93
2022-12-27T15:03:13.946Z,13.91
2022-12-27T15:06:02.915Z,13.84
2022-12-27T15:08:54.546Z,13.78
2022-12-27T15:11:33.770Z,13.67
2022-12-27T15:14:06.576Z,13.63
2022-12-27T15:16:40.750Z,13.53
2022-12-27T15:19:27.484Z,13.41
2022-12-27T15:22:15.935Z,13.44
2022-12-27T15:25:11.804Z,13.41
2022-12-27T15:27:50.259Z,13.31
2022-12-27T15:30:51.974Z,13.35
2022-12-27T15:33:46.982Z,13.39
2022-12-27T15:36:19.833Z,13.33
2022-12-27T15:38:54.008Z,13.37
2022-12-27T15:41:31.506Z,13.34
2022-12-27T15:44:11.368Z,13.35
2022-12-27T15:46:50.025Z,13.33
2022-12-27T15:49:23.457Z,13.27
2022-12-27T15:51:59.779Z,13.25
2022-12-27T15:54:48.822Z,13.22
2022-12-27T15:57:46.025Z,13.11
2022-12-27T16:00:15.656Z,12.96
2022-12-27T16:02:48.204Z,12.97
2022-12-27T16:05:20.993Z,12.96
2022-12-27T16:08:13.426Z,12.91
2022-12-27T16:10:40.573Z,12.92
2022-12-27T16:13:10.020Z,12.96
2022-12-27T16:15:49.039Z,12.94
2022-12-27T16:18:21.524Z,12.90
2022-12-27T16:21:06.604Z,12.96
2022-12-27T16:23:35.842Z,12.95
2022-12-27T16:26:20.528Z,12.95
2022-12-27T16:28:55.554Z,12.93
2022-12-27T16:31:23.510Z,12.84
2022-12-27T16:33:50.384Z,12.82
2022-12-27T16:36:19.530Z,12.81
2022-12-27T16:38:48.948Z,12.72
2022-12-27T16:41:18.100Z,12.66
2022-12-27T16:43:59.787Z,12.62
2022-12-27T16:46:43.501Z,12.50
2022-12-27T16:49:28.792Z,12.38
2022-12-27T16:52:13.405Z,12.39
2022-12-27T16:54:45.996Z,12.23
2022-12-27T16:57:25.133Z,12.18
2022-12-27T16:59:55.307Z,12.13
2022-12-27T17:02:36.905Z,12.06
2022-12-27T17:05:07.968Z,12.03
2022-12-27T17:07:52.795Z,12.02
2022-12-27T17:10:31.119Z,11.87
2022-12-27T17:13:25.572Z,11.84
2022-12-27T17:16:07.681Z,11.78
2022-12-27T17:18:55.492Z,11.71
2022-12-27T17:21:35.472Z,11.68
2022-12-27T17:24:13.810Z,11.74
2022-12-27T17:26:52.345Z,11.78
2022-12-27T17:29:49.323Z,11.79
2022-12-27T17:32:38.649Z,11.80
2022-12-27T17:35:15.878Z,11.80
2022-12-27T17:37:45.480Z,11.76
2022-12-27T17:40:17.907Z,11.77
2022-12-27T17:43:06.605Z,11.78
2022-12-27T17:45:53.451Z,11.78
2022-12-27T17:48:25.601Z,11.80
2022-12-27T17:50:53.089Z,11.78
2022-12-27T17:53:20.665Z,11.67
2022-12-27T17:56:06.189Z,11.74
2022-12-27T17:58:34.389Z,11.68
2022-12-27T18:01:01.334Z,11.77
2022-12-27T18:03:41.958Z,11.87
2022-12-27T18:06:08.695Z,11.93
2022-12-27T18:08:35.411Z,11.85
2022-12-27T18:11:03.925Z,11.94
2022-12-27T18:13:32.850Z,11.94
2022-12-27T18:15:59.449Z,12.00
2022-12-27T18:18:28.145Z,11.96
2022-12-27T18:21:02.514Z,12.01
2022-12-27T18:23:29.195Z,11.98
2022-12-27T18:26:01.362Z,12.10
2022-12-27T18:28:33.694Z,12.12
2022-12-27T18:31:15.915Z,12.12
2022-12-27T18:33:53.732Z,12.14
2022-12-27T18:36:31.245Z,12.16
2022-12-27T18:39:18.569Z,12.21
2022-12-27T18:41:47.580Z,12.16
2022-12-27T18:44:27.453Z,12.24
2022-12-27T18:46:56.194Z,12.22
2022-12-27T18:49:27.108Z,12.17
2022-12-27T18:51:54.125Z,12.16
2022-12-27T18:54:23.001Z,12.15
2022-12-27T18:56:52.533Z,12.11
2022-12-27T18:59:22.199Z,12.13
2022-12-27T19:01:48.901Z,12.05
2022-12-27T19:04:15.470Z,12.02
2022-12-27T19:06:42.646Z,12.12
2022-12-27T19:09:14.083Z,12.10
2022-12-27T19:11:40.922Z,12.10
2022-12-27T19:14:12.126Z,11.99
2022-12-27T19:16:38.747Z,11.97
2022-12-27T19:19:14.712Z,12.18
2022-12-27T19:21:41.294Z,12.25
2022-12-27T19:24:25.986Z,12.18
2022-12-27T19:26:53.245Z,12.27
2022-12-27T19:29:21.763Z,12.24
2022-12-27T19:31:57.933Z,12.11
2022-12-27T19:34:25.990Z,12.18
2022-12-27T19:36:52.653Z,12.14
2022-12-27T19:39:29.115Z,12.14
2022-12-27T19:42:00.912Z,12.01
2022-12-27T19:44:28.347Z,12.07
2022-12-27T19:46:55.020Z,12.11
2022-12-27T19:52:11.559Z,12.01
2022-12-27T19:54:38.352Z,12.03
2022-12-27T19:57:05.047Z,12.09
2022-12-27T19:59:31.738Z,12.11
2022-12-27T20:01:58.599Z,12.14
2022-12-27T20:04:25.341Z,12.08
2022-12-27T20:06:52.044Z,12.02
2022-12-27T20:09:19.560Z,12.00
2022-12-27T20:11:46.224Z,11.99
2022-12-27T20:14:12.987Z,11.99
2022-12-27T20:16:39.653Z,11.96
2022-12-27T20:19:06.420Z,11.79
2022-12-27T20:21:33.113Z,11.67
2022-12-27T20:23:59.858Z,11.67
2022-12-27T20:26:26.517Z,11.62
2022-12-27T20:28:53.221Z,11.50
2022-12-27T20:31:20.505Z,11.42
2022-12-27T20:33:53.545Z,11.38
2022-12-27T20:36:20.966Z,11.29
2022-12-27T20:38:47.581Z,11.23
2022-12-27T20:41:16.188Z,11.18
2022-12-27T20:43:43.076Z,11.10
2022-12-27T20:46:11.408Z,11.07
2022-12-27T20:48:38.942Z,11.06
2022-12-27T20:51:09.088Z,10.93
2022-12-27T20:53:35.763Z,11.03
2022-12-27T20:56:02.472Z,11.02
2022-12-27T20:58:29.933Z,10.83
2022-12-27T21:00:56.584Z,10.77
2022-12-27T21:03:23.317Z,10.78
2022-12-27T21:05:50.023Z,10.76
2022-12-27T21:08:16.659Z,10.64
2022-12-27T21:10:43.289Z,10.61
2022-12-27T21:13:09.885Z,10.60
2022-12-27T21:15:42.259Z,10.50
2022-12-27T21:18:09.248Z,10.56
2022-12-27T21:20:35.906Z,10.60
2022-12-27T21:23:02.609Z,10.66
2022-12-27T21:25:29.273Z,10.75
2022-12-27T21:27:55.924Z,10.76
2022-12-27T21:30:22.584Z,10.73
2022-12-27T21:32:49.215Z,10.65
2022-12-27T21:35:15.886Z,10.63
2022-12-27T21:37:42.506Z,10.61
2022-12-27T21:40:09.725Z,10.65
2022-12-27T21:42:36.341Z,10.64
2022-12-27T21:45:03.025Z,10.69
2022-12-27T21:47:29.608Z,10.60
2022-12-27T21:49:56.249Z,10.72
2022-12-27T21:52:22.886Z,10.79
2022-12-27T21:54:49.521Z,10.63
2022-12-27T21:57:16.187Z,10.74
2022-12-27T21:59:42.870Z,10.75
2022-12-27T22:02:09.730Z,10.69
2022-12-27T22:04:36.543Z,10.78
2022-12-27T22:07:03.334Z,10.79
2022-12-27T22:09:29.998Z,10.76
2022-12-27T22:11:56.698Z,10.71
2022-12-27T22:14:25.805Z,10.71
2022-12-27T22:16:53.028Z,10.73
2022-12-27T22:19:19.668Z,10.72
2022-12-27T22:21:46.290Z,10.66
2022-12-27T22:24:13.278Z,10.64
2022-12-27T22:26:39.880Z,10.66
2022-12-27T22:29:07.388Z,10.61
2022-12-27T22:31:34.217Z,10.57
2022-12-27T22:34:01.415Z,10.54
2022-12-27T22:36:28.028Z,10.52
2022-12-27T22:38:55.789Z,10.40
2022-12-27T22:41:32.669Z,10.36
2022-12-27T22:44:00.973Z,10.32
2022-12-27T22:46:28.397Z,10.27
2022-12-27T22:48:56.685Z,10.14
2022-12-27T22:51:31.072Z,10.19
2022-12-27T22:53:57.846Z,10.09
2022-12-27T22:56:32.459Z,10.10
2022-12-27T22:58:59.252Z,10.09
2022-12-27T23:01:30.522Z,10.01
2022-12-27T23:03:57.711Z,10.02
2022-12-27T23:06:24.499Z,9.87
2022-12-27T23:08:51.125Z,9.96
2022-12-27T23:11:19.851Z,9.93
2022-12-27T23:13:46.938Z,9.86
2022-12-27T23:16:13.655Z,9.89
2022-12-27T23:18:40.529Z,9.86
2022-12-27T23:21:22.683Z,9.85
2022-12-27T23:23:50.941Z,9.86
2022-12-27T23:26:18.716Z,9.81
2022-12-27T23:28:45.897Z,9.73
2022-12-27T23:31:12.692Z,9.72
2022-12-27T23:33:40.397Z,9.74
2022-12-27T23:36:07.324Z,9.71
2022-12-27T23:38:34.033Z,9.68
2022-12-27T23:41:02.051Z,9.69
2022-12-27T23:43:53.383Z,9.71
2022-12-27T23:46:23.338Z,9.67
2022-12-27T23:48:50.289Z,9.66
2022-12-27T23:51:17.011Z,9.69
2022-12-27T23:53:43.617Z,9.66
2022-12-27T23:56:15.144Z,9.71
2022-12-27T23:58:41.799Z,9.68
